Terminal Aerodrome Forecast
Issued by NWS Duluth, MN

Home | Current Version | Previous Version | Text Only | Print | Product List | Glossary On
Versions: 1 2 3 4 5 6 7 8 9 10 11 12 13 14 15 16 17 18 19 20 21
512
FTUS43 KDLH 152132 AAB
TAFDLH
TAF AMD
KDLH 152132Z 1522/1618 34015G23KT 3SM -SN BLSN SCT026 OVC035
      TEMPO 1522/1602 1 1/2SM -SN BLSN OVC017
     FM160600 36012KT P6SM SCT025 SCT040
     FM161400 33008KT P6SM SCT050=

USA.gov is the U.S. government's official web portal to all federal, state and local government web resources and services.